NZ2004 OBBI-OERK
Flight info
| Callsign | NZ2004 |
|---|---|
| Flight time | N/A |
| Altitude | 34000 |
| Route | DCT BHR B457 NARMI N112 GETOT Q212 KIA DCT |
| Aircraft | A20N/M-SDE2E3FGHIRWXY/LB1 |
Departure
| Time | 2026-05-08 18:44 |
|---|---|
| Airport | Bahrain International Airport (OBBI) |
Arrival
| Time | N/A |
|---|---|
| Airport | King Khalid International Airport (OERK) |
| Time | Latitude | Longitude | Altitude | Speed | Heading |
|---|---|---|---|---|---|
| 2026-05-08 18:02 | 26.26485 | 50.63683 | 20 ft | 0 kts | 213° |
| 2026-05-08 18:16 | 26.26495 | 50.63690 | 22 ft | 3 kts | 213° |
| 2026-05-08 18:16 | 26.26510 | 50.63702 | 22 ft | 3 kts | 213° |
| 2026-05-08 18:17 | 26.26526 | 50.63713 | 22 ft | 3 kts | 213° |
| 2026-05-08 18:17 | 26.26543 | 50.63722 | 21 ft | 3 kts | 182° |
| 2026-05-08 18:17 | 26.26562 | 50.63718 | 22 ft | 3 kts | 141° |
| 2026-05-08 18:17 | 26.26568 | 50.63712 | 24 ft | 0 kts | 124° |
| 2026-05-08 18:35 | 26.26567 | 50.63713 | 24 ft | 1 kts | 124° |
| 2026-05-08 18:35 | 26.26535 | 50.63757 | 22 ft | 17 kts | 127° |
| 2026-05-08 18:35 | 26.26454 | 50.63892 | 20 ft | 19 kts | 123° |
| 2026-05-08 18:36 | 26.26428 | 50.63939 | 19 ft | 0 kts | 120° |
| 2026-05-08 18:38 | 26.26428 | 50.63940 | 19 ft | 1 kts | 120° |
| 2026-05-08 18:38 | 26.26416 | 50.63977 | 19 ft | 5 kts | 83° |
| 2026-05-08 18:39 | 26.26460 | 50.64055 | 19 ft | 10 kts | 82° |
| 2026-05-08 18:39 | 26.26405 | 50.64186 | 20 ft | 29 kts | 117° |
| 2026-05-08 18:39 | 26.26263 | 50.64427 | 17 ft | 46 kts | 124° |
| 2026-05-08 18:39 | 26.26064 | 50.64768 | 18 ft | 57 kts | 121° |
| 2026-05-08 18:40 | 26.26031 | 50.64945 | 20 ft | 0 kts | 66° |
| 2026-05-08 18:41 | 26.26055 | 50.64969 | 20 ft | 8 kts | 25° |
| 2026-05-08 18:42 | 26.26137 | 50.64987 | 23 ft | 11 kts | 339° |
| 2026-05-08 18:42 | 26.26240 | 50.64831 | 20 ft | 35 kts | 290° |
| 2026-05-08 18:42 | 26.26284 | 50.64738 | 19 ft | 0 kts | 302° |
| 2026-05-08 18:43 | 26.26285 | 50.64737 | 19 ft | 1 kts | 302° |
| 2026-05-08 18:43 | 26.26396 | 50.64548 | 17 ft | 69 kts | 304° |
| 2026-05-08 18:43 | 26.26817 | 50.63822 | 22 ft | 154 kts | 303° |
| 2026-05-08 18:43 | 26.27468 | 50.62715 | 515 ft | 183 kts | 303° |
| 2026-05-08 18:44 | 26.28229 | 50.61445 | 1094 ft | 210 kts | 303° |
| 2026-05-08 18:44 | 26.29038 | 50.60070 | 2060 ft | 214 kts | 304° |
| 2026-05-08 18:44 | 26.29971 | 50.58652 | 2678 ft | 241 kts | 312° |
| 2026-05-08 18:44 | 26.31385 | 50.57556 | 3386 ft | 257 kts | 338° |
| 2026-05-08 18:45 | 26.33154 | 50.57201 | 3898 ft | 262 kts | 4° |
| 2026-05-08 18:45 | 26.34864 | 50.57850 | 4090 ft | 263 kts | 34° |
| 2026-05-08 18:45 | 26.36053 | 50.59380 | 4111 ft | 265 kts | 65° |
| 2026-05-08 18:45 | 26.36410 | 50.61375 | 4221 ft | 267 kts | 95° |
| 2026-05-08 18:46 | 26.35931 | 50.63371 | 4979 ft | 268 kts | 115° |
| 2026-05-08 18:46 | 26.34792 | 50.64933 | 6278 ft | 256 kts | 145° |
| 2026-05-08 18:46 | 26.33177 | 50.65579 | 7545 ft | 242 kts | 173° |
| 2026-05-08 18:46 | 26.31530 | 50.65736 | 8690 ft | 236 kts | 182° |
| 2026-05-08 18:47 | 26.29924 | 50.65429 | 9600 ft | 235 kts | 200° |
| 2026-05-08 18:47 | 26.28471 | 50.64589 | 10441 ft | 238 kts | 218° |
| 2026-05-08 18:47 | 26.27323 | 50.63259 | 11254 ft | 240 kts | 237° |
| 2026-05-08 18:47 | 26.26647 | 50.61552 | 12064 ft | 243 kts | 258° |
| 2026-05-08 18:48 | 26.26510 | 50.59669 | 12868 ft | 246 kts | 271° |
| 2026-05-08 18:48 | 26.26633 | 50.57759 | 13649 ft | 249 kts | 277° |
| 2026-05-08 18:48 | 26.26885 | 50.55838 | 14397 ft | 252 kts | 279° |
| 2026-05-08 18:48 | 26.27191 | 50.53903 | 15117 ft | 255 kts | 280° |
| 2026-05-08 18:49 | 26.27507 | 50.51947 | 15812 ft | 258 kts | 280° |
| 2026-05-08 18:49 | 26.27814 | 50.49962 | 16507 ft | 261 kts | 279° |
| 2026-05-08 18:49 | 26.28101 | 50.47978 | 17188 ft | 264 kts | 278° |
| 2026-05-08 18:49 | 26.28383 | 50.45917 | 17881 ft | 267 kts | 278° |
| 2026-05-08 18:50 | 26.28649 | 50.43887 | 18540 ft | 270 kts | 278° |
| 2026-05-08 18:50 | 26.28917 | 50.41807 | 19205 ft | 273 kts | 278° |
| 2026-05-08 18:50 | 26.29185 | 50.39702 | 19852 ft | 276 kts | 278° |
| 2026-05-08 18:50 | 26.29367 | 50.38268 | 20284 ft | 278 kts | 278° |
| 2026-05-08 18:51 | 26.29728 | 50.35426 | 21096 ft | 282 kts | 278° |
| 2026-05-08 18:51 | 26.30007 | 50.33251 | 21679 ft | 285 kts | 278° |
| 2026-05-08 18:51 | 26.30303 | 50.31050 | 22244 ft | 289 kts | 278° |
| 2026-05-08 18:51 | 26.30613 | 50.28835 | 22790 ft | 292 kts | 279° |
| 2026-05-08 18:52 | 26.30935 | 50.26575 | 23327 ft | 296 kts | 279° |
| 2026-05-08 18:52 | 26.31261 | 50.24302 | 23846 ft | 299 kts | 279° |
| 2026-05-08 18:52 | 26.31590 | 50.22001 | 24351 ft | 302 kts | 279° |
| 2026-05-08 18:52 | 26.31922 | 50.19675 | 24844 ft | 305 kts | 279° |
| 2026-05-08 18:53 | 26.32113 | 50.18115 | 25160 ft | 308 kts | 275° |
| 2026-05-08 18:53 | 26.32225 | 50.15725 | 25621 ft | 311 kts | 271° |
| 2026-05-08 18:53 | 26.32242 | 50.13306 | 26070 ft | 314 kts | 270° |
| 2026-05-08 18:53 | 26.32217 | 50.10863 | 26502 ft | 317 kts | 269° |
| 2026-05-08 18:54 | 26.32167 | 50.08396 | 26925 ft | 320 kts | 268° |
| 2026-05-08 18:54 | 26.32106 | 50.05909 | 27337 ft | 322 kts | 268° |
| 2026-05-08 18:54 | 26.32042 | 50.03405 | 27736 ft | 325 kts | 268° |
| 2026-05-08 18:54 | 26.31980 | 50.00877 | 28123 ft | 328 kts | 268° |
| 2026-05-08 18:55 | 26.31859 | 49.95700 | 28587 ft | 343 kts | 268° |
| 2026-05-08 18:55 | 26.31799 | 49.93005 | 28733 ft | 353 kts | 269° |
| 2026-05-08 18:55 | 26.31737 | 49.90231 | 28880 ft | 363 kts | 268° |
| 2026-05-08 18:56 | 26.31674 | 49.87385 | 29025 ft | 372 kts | 268° |
| 2026-05-08 18:56 | 26.31609 | 49.84468 | 29169 ft | 381 kts | 268° |
| 2026-05-08 18:56 | 26.31542 | 49.81484 | 29311 ft | 390 kts | 268° |
| 2026-05-08 18:56 | 26.31472 | 49.78429 | 29449 ft | 398 kts | 268° |
| 2026-05-08 18:57 | 26.31400 | 49.75311 | 29585 ft | 407 kts | 268° |
| 2026-05-08 18:57 | 26.31326 | 49.72129 | 29717 ft | 415 kts | 268° |
| 2026-05-08 18:57 | 26.31249 | 49.68888 | 29848 ft | 422 kts | 268° |
| 2026-05-08 18:57 | 26.31171 | 49.65587 | 29975 ft | 430 kts | 268° |
| 2026-05-08 18:58 | 26.31090 | 49.62228 | 30117 ft | 437 kts | 268° |
| 2026-05-08 18:58 | 26.31007 | 49.58823 | 30346 ft | 441 kts | 268° |
| 2026-05-08 18:58 | 26.30923 | 49.55399 | 30630 ft | 444 kts | 268° |
| 2026-05-08 18:58 | 26.30838 | 49.51951 | 30922 ft | 446 kts | 268° |
| 2026-05-08 18:59 | 26.30751 | 49.48484 | 31212 ft | 448 kts | 268° |
| 2026-05-08 18:59 | 26.30663 | 49.45015 | 31594 ft | 448 kts | 268° |
| 2026-05-08 18:59 | 26.30575 | 49.41553 | 31988 ft | 446 kts | 268° |
| 2026-05-08 18:59 | 26.30485 | 49.38102 | 32358 ft | 446 kts | 268° |
| 2026-05-08 19:00 | 26.30395 | 49.34651 | 32711 ft | 445 kts | 268° |
| 2026-05-08 19:00 | 26.30304 | 49.31206 | 33068 ft | 444 kts | 268° |
| 2026-05-08 19:00 | 26.30213 | 49.27768 | 33406 ft | 444 kts | 268° |
| 2026-05-08 19:00 | 26.30120 | 49.24334 | 33736 ft | 443 kts | 268° |
| 2026-05-08 19:01 | 26.30027 | 49.20905 | 34055 ft | 442 kts | 268° |
| 2026-05-08 19:01 | 26.29935 | 49.17523 | 34356 ft | 442 kts | 268° |
| 2026-05-08 19:01 | 26.29841 | 49.14106 | 34660 ft | 441 kts | 268° |
| 2026-05-08 19:01 | 26.29743 | 49.10691 | 34928 ft | 441 kts | 268° |
| 2026-05-08 19:02 | 26.29577 | 49.07287 | 35007 ft | 437 kts | 266° |
| 2026-05-08 19:02 | 26.29079 | 49.00614 | 35002 ft | 429 kts | 265° |
| 2026-05-08 19:03 | 26.28530 | 48.93997 | 34997 ft | 429 kts | 265° |
| 2026-05-08 19:03 | 26.27996 | 48.87380 | 35005 ft | 429 kts | 265° |
| 2026-05-08 19:04 | 26.27478 | 48.80754 | 34997 ft | 429 kts | 265° |
| 2026-05-08 19:04 | 26.26962 | 48.74128 | 34997 ft | 429 kts | 265° |
| 2026-05-08 19:05 | 26.26443 | 48.67496 | 35005 ft | 430 kts | 265° |
| 2026-05-08 19:05 | 26.25920 | 48.60866 | 35009 ft | 430 kts | 265° |
| 2026-05-08 19:06 | 26.25390 | 48.54239 | 35005 ft | 430 kts | 263° |
| 2026-05-08 19:06 | 26.23919 | 48.47817 | 34999 ft | 429 kts | 248° |
| 2026-05-08 19:07 | 26.21550 | 48.41713 | 34999 ft | 430 kts | 245° |
| 2026-05-08 19:07 | 26.19008 | 48.35688 | 35004 ft | 430 kts | 245° |
| 2026-05-08 19:08 | 26.16450 | 48.29668 | 35000 ft | 430 kts | 245° |
| 2026-05-08 19:08 | 26.13878 | 48.23566 | 35000 ft | 441 kts | 245° |
| 2026-05-08 19:09 | 26.10998 | 48.17528 | 34997 ft | 443 kts | 234° |
| 2026-05-08 19:09 | 26.07022 | 48.12304 | 34998 ft | 443 kts | 227° |
| 2026-05-08 19:10 | 26.02801 | 48.07337 | 35005 ft | 438 kts | 226° |
| 2026-05-08 19:10 | 25.98612 | 48.02513 | 35004 ft | 431 kts | 226° |
| 2026-05-08 19:11 | 25.94462 | 47.97710 | 35006 ft | 431 kts | 226° |
| 2026-05-08 19:11 | 25.90331 | 47.92905 | 35005 ft | 431 kts | 226° |
| 2026-05-08 19:11 | 25.88257 | 47.90488 | 34067 ft | 419 kts | 225° |
| 2026-05-08 19:12 | 26.26485 | 50.63683 | 29 ft | 0 kts | 213° |